Time;durP1;ratioP1;P1;durP2;ratioP2;P2;SDS_P1;SDS_P2;PMS_P1;PMS_P2;Temp;Humidity;BMP_temperature;BMP_pressure;BME280_temperature;BME280_humidity;BME280_pressure;Samples;Min_cycle;Max_cycle;Signal;HPM_P1;HPM_P2
2023/03/18 00:01:37;;;;;;;9.38;2.22;;;11.70;99.90;;;;;;15400684;23;20076;-78
2023/03/18 00:07:40;;;;;;;6.65;2.08;;;11.60;99.90;;;;;;15392019;23;20087;-78
2023/03/18 00:13:43;;;;;;;5.03;1.92;;;11.40;99.90;;;;;;15418477;23;20020;-78
2023/03/18 00:19:45;;;;;;;7.50;2.20;;;11.10;99.90;;;;;;15392262;22;20103;-79
2023/03/18 00:25:50;;;;;;;7.05;2.50;;;10.90;99.90;;;;;;15393273;23;20478;-79
2023/03/18 00:31:52;;;;;;;6.75;2.40;;;10.70;99.90;;;;;;15402321;23;20025;-79
2023/03/18 00:37:54;;;;;;;6.63;2.92;;;10.60;99.90;;;;;;15379583;23;20013;-79
2023/03/18 00:43:57;;;;;;;6.95;2.60;;;10.50;99.90;;;;;;15424875;23;20021;-78
2023/03/18 00:49:59;;;;;;;10.98;2.60;;;10.40;99.90;;;;;;15418299;23;20052;-79
2023/03/18 00:56:00;;;;;;;6.97;2.90;;;10.30;99.90;;;;;;15394371;23;20032;-79
2023/03/18 01:02:02;;;;;;;7.60;3.50;;;10.10;99.90;;;;;;15397581;23;20078;-78
2023/03/18 01:08:05;;;;;;;8.55;3.60;;;10.00;99.90;;;;;;15397362;23;20020;-79
2023/03/18 01:14:07;;;;;;;6.63;3.38;;;10.00;99.90;;;;;;15395216;23;20029;-78
2023/03/18 01:20:11;;;;;;;9.43;3.67;;;10.00;99.90;;;;;;15393955;23;20032;-79
2023/03/18 01:26:14;;;;;;;7.72;3.53;;;9.90;99.90;;;;;;15369938;23;20024;-78
2023/03/18 01:32:16;;;;;;;10.70;4.07;;;9.90;99.90;;;;;;15430218;23;20036;-80
2023/03/18 01:38:17;;;;;;;10.70;4.07;;;9.80;99.90;;;;;;15424716;23;20025;-78
2023/03/18 01:44:22;;;;;;;9.95;3.92;;;9.80;99.90;;;;;;15397408;23;20535;-79
2023/03/18 01:50:29;;;;;;;5.53;3.53;;;9.70;99.90;;;;;;15405811;23;20122;-79
2023/03/18 01:56:35;;;;;;;10.35;4.13;;;9.60;99.90;;;;;;15403581;23;20016;-79
2023/03/18 02:02:39;;;;;;;10.52;3.85;;;9.60;99.90;;;;;;15400160;23;20020;-80
2023/03/18 02:08:41;;;;;;;8.68;4.28;;;9.60;99.90;;;;;;15402314;23;20447;-79
2023/03/18 02:14:44;;;;;;;11.35;4.13;;;9.70;99.90;;;;;;15430275;23;20536;-79
2023/03/18 02:21:14;;;;;;;10.80;4.38;;;9.70;99.90;;;;;;15390404;23;20020;-79
2023/03/18 02:27:28;;;;;;;9.52;4.68;;;9.60;99.90;;;;;;15388084;23;20016;-78
2023/03/18 02:33:34;;;;;;;10.05;4.28;;;9.70;99.90;;;;;;15422235;23;20024;-78
2023/03/18 02:39:36;;;;;;;10.27;4.68;;;9.70;99.90;;;;;;15421309;23;20017;-79
2023/03/18 02:45:39;;;;;;;13.10;5.32;;;9.70;99.90;;;;;;15418360;23;20457;-78
2023/03/18 02:51:42;;;;;;;9.65;4.75;;;9.70;99.90;;;;;;15394882;23;20024;-79
2023/03/18 02:57:44;;;;;;;10.05;4.40;;;9.70;99.90;;;;;;15386279;23;20067;-80
2023/03/18 03:03:47;;;;;;;12.15;4.32;;;9.70;99.90;;;;;;15413230;23;20025;-79
2023/03/18 03:09:49;;;;;;;8.83;4.50;;;9.80;99.90;;;;;;15387665;23;20021;-78
2023/03/18 03:15:51;;;;;;;13.38;4.60;;;9.80;99.90;;;;;;15393960;23;20020;-79
2023/03/18 03:21:53;;;;;;;13.38;4.38;;;9.90;99.90;;;;;;15408339;23;20031;-79
2023/03/18 03:27:55;;;;;;;9.52;4.55;;;9.90;99.90;;;;;;15383404;23;20091;-78
2023/03/18 03:33:57;;;;;;;12.13;3.88;;;9.90;99.90;;;;;;15427057;23;20358;-78
2023/03/18 03:39:59;;;;;;;10.15;4.03;;;10.00;99.90;;;;;;15401669;23;20028;-77
2023/03/18 03:46:01;;;;;;;9.63;4.25;;;10.10;99.90;;;;;;15403501;23;20075;-80
2023/03/18 03:52:04;;;;;;;13.55;4.18;;;10.10;99.90;;;;;;15384280;23;20033;-78
2023/03/18 03:58:06;;;;;;;10.20;4.15;;;10.10;99.90;;;;;;15402441;23;20012;-78
2023/03/18 04:04:08;;;;;;;12.68;4.10;;;10.10;99.90;;;;;;15426976;23;20024;-78
2023/03/18 04:10:16;;;;;;;10.27;4.35;;;10.00;99.90;;;;;;15396392;23;20451;-79
2023/03/18 04:16:18;;;;;;;9.23;3.95;;;10.00;99.90;;;;;;15394215;23;20578;-79
2023/03/18 04:22:20;;;;;;;12.23;4.00;;;9.90;99.90;;;;;;15424814;23;20035;-79
2023/03/18 04:28:22;;;;;;;13.93;3.90;;;9.80;99.90;;;;;;15377590;23;20051;-78
2023/03/18 04:34:24;;;;;;;11.75;4.10;;;9.70;99.90;;;;;;15382902;23;20025;-79
2023/03/18 04:40:26;;;;;;;12.60;4.00;;;9.60;99.90;;;;;;15400832;23;20075;-78
2023/03/18 04:46:30;;;;;;;9.23;3.90;;;9.50;99.90;;;;;;15403135;23;20029;-78
2023/03/18 04:52:32;;;;;;;7.45;4.22;;;9.50;99.90;;;;;;15402356;23;20482;-78
2023/03/18 04:58:34;;;;;;;14.48;4.75;;;9.50;99.90;;;;;;15401804;23;20027;-78
2023/03/18 05:04:37;;;;;;;11.68;4.80;;;9.50;99.90;;;;;;15407262;23;20099;-77
2023/03/18 05:10:40;;;;;;;11.98;4.35;;;9.60;99.90;;;;;;15406218;23;20012;-78
2023/03/18 05:16:42;;;;;;;8.95;4.60;;;9.60;99.90;;;;;;15431305;23;20076;-77
2023/03/18 05:22:44;;;;;;;9.43;4.55;;;9.70;99.90;;;;;;15409717;23;20028;-78
2023/03/18 05:28:46;;;;;;;10.27;4.35;;;9.80;99.90;;;;;;15410653;23;20023;-78
2023/03/18 05:34:48;;;;;;;9.93;4.35;;;9.80;99.90;;;;;;15401658;23;20755;-79
2023/03/18 05:40:56;;;;;;;10.70;4.30;;;9.80;99.90;;;;;;15430581;23;20064;-78
2023/03/18 05:46:59;;;;;;;10.90;4.63;;;9.80;99.90;;;;;;15432547;23;20864;-79
2023/03/18 05:53:03;;;;;;;10.52;4.00;;;9.90;99.90;;;;;;15433539;23;20346;-78
2023/03/18 05:59:06;;;;;;;12.68;4.57;;;9.90;99.90;;;;;;15432077;23;20052;-78
2023/03/18 06:05:09;;;;;;;8.00;3.90;;;10.00;99.90;;;;;;15403698;23;20055;-78
2023/03/18 06:11:14;;;;;;;9.52;3.90;;;10.00;99.90;;;;;;15426744;23;20048;-78
2023/03/18 06:17:15;;;;;;;;;;;10.10;99.90;;;;;;15401301;23;20016;-78
2023/03/18 06:23:18;;;;;;;13.07;4.05;;;10.20;99.90;;;;;;15505422;22;20385;-79
2023/03/18 06:29:20;;;;;;;9.35;3.67;;;10.30;99.90;;;;;;15504104;22;20059;-79
2023/03/18 06:35:25;;;;;;;9.55;4.10;;;10.30;99.90;;;;;;15502828;23;20024;-78
2023/03/18 06:41:28;;;;;;;9.85;3.90;;;10.40;99.90;;;;;;15504651;23;20020;-79
2023/03/18 06:47:30;;;;;;;8.67;4.23;;;10.50;99.90;;;;;;15505076;23;20024;-78
2023/03/18 06:53:35;;;;;;;9.07;4.00;;;10.40;99.90;;;;;;15504870;22;20047;-79
2023/03/18 06:59:38;;;;;;;;;;;10.30;99.90;;;;;;15506073;23;20024;-79
2023/03/18 07:05:41;;;;;;;9.90;4.30;;;10.40;99.90;;;;;;15495628;23;19957;-79
2023/03/18 07:11:45;;;;;;;8.65;4.30;;;10.60;99.90;;;;;;15501863;23;20078;-78
2023/03/18 07:17:49;;;;;;;9.20;4.20;;;10.70;99.90;;;;;;15500938;23;20261;-78
2023/03/18 07:23:51;;;;;;;8.35;4.00;;;10.70;99.90;;;;;;15446614;22;20107;-78
2023/03/18 07:29:53;;;;;;;8.15;4.20;;;10.80;99.90;;;;;;15404763;23;20091;-78
2023/03/18 07:35:55;;;;;;;10.13;4.30;;;10.90;99.90;;;;;;15402527;23;20056;-78
2023/03/18 07:41:58;;;;;;;9.75;4.68;;;10.90;99.90;;;;;;15395158;23;20028;-78
2023/03/18 07:48:00;;;;;;;8.32;4.07;;;11.10;99.90;;;;;;15407538;23;20096;-78
2023/03/18 07:54:03;;;;;;;12.02;4.40;;;11.20;99.90;;;;;;15427768;23;20127;-78
2023/03/18 08:00:08;;;;;;;12.02;4.00;;;11.30;99.90;;;;;;15401656;23;20381;-79
2023/03/18 08:06:10;;;;;;;8.48;3.75;;;11.40;99.90;;;;;;15341237;23;20031;-79
2023/03/18 08:12:12;;;;;;;8.35;3.92;;;11.40;99.90;;;;;;15405853;23;20385;-79
2023/03/18 08:18:14;;;;;;;8.82;4.05;;;11.40;99.90;;;;;;15427151;23;20023;-79
2023/03/18 08:24:16;;;;;;;5.88;3.50;;;11.50;99.90;;;;;;15481623;23;20030;-78
2023/03/18 08:30:18;;;;;;;8.43;4.18;;;11.50;99.90;;;;;;15499853;22;20059;-79
2023/03/18 08:36:22;;;;;;;8.88;3.78;;;11.50;99.90;;;;;;15502059;23;20046;-83
2023/03/18 08:42:24;;;;;;;9.07;3.93;;;11.80;99.90;;;;;;15502158;23;20031;-78
2023/03/18 08:48:26;;;;;;;10.30;4.28;;;12.00;99.90;;;;;;15492032;23;20074;-78
2023/03/18 08:54:27;;;;;;;8.35;3.78;;;12.40;99.90;;;;;;15493561;23;20022;-79
2023/03/18 09:00:30;;;;;;;7.55;4.22;;;12.40;99.90;;;;;;15498380;23;20385;-78
2023/03/18 09:06:31;;;;;;;9.40;4.50;;;12.20;99.90;;;;;;15490910;23;20401;-78
2023/03/18 09:12:34;;;;;;;8.43;3.97;;;12.10;99.90;;;;;;15497227;23;20513;-82
2023/03/18 09:18:36;;;;;;;8.45;4.60;;;12.10;99.90;;;;;;15494326;23;20107;-78
2023/03/18 09:24:39;;;;;;;8.23;4.60;;;12.10;99.90;;;;;;15424309;22;20037;-79
2023/03/18 09:30:41;;;;;;;8.75;4.80;;;12.10;99.90;;;;;;15415026;23;20040;-79
2023/03/18 09:36:49;;;;;;;8.25;5.15;;;12.10;99.90;;;;;;15394568;23;20020;-79
2023/03/18 09:42:58;;;;;;;8.15;4.80;;;12.30;99.90;;;;;;15395678;23;20074;-79
2023/03/18 09:49:15;;;;;;;9.38;5.70;;;12.90;99.90;;;;;;15424043;23;20463;-79
2023/03/18 09:55:28;;;;;;;9.82;6.35;;;13.10;99.90;;;;;;15403102;23;20451;-79
2023/03/18 10:01:36;;;;;;;14.15;7.50;;;13.20;99.90;;;;;;15427337;23;20463;-78
2023/03/18 10:07:41;;;;;;;14.80;8.32;;;13.40;99.90;;;;;;15397537;23;20024;-79
2023/03/18 10:13:53;;;;;;;12.85;7.50;;;13.70;99.90;;;;;;15391715;23;20020;-78
2023/03/18 10:19:58;;;;;;;11.77;8.43;;;13.70;99.90;;;;;;15401478;23;20027;-79
2023/03/18 10:26:10;;;;;;;14.40;8.77;;;13.60;99.90;;;;;;15411361;23;20098;-79
2023/03/18 10:32:31;;;;;;;12.18;8.70;;;13.50;99.90;;;;;;15400396;23;20541;-79
2023/03/18 10:38:52;;;;;;;12.70;8.05;;;13.50;99.90;;;;;;15405496;23;20023;-78
2023/03/18 10:45:16;;;;;;;12.73;6.88;;;14.00;99.90;;;;;;15374096;23;20028;-79
2023/03/18 10:51:36;;;;;;;12.27;7.47;;;14.90;99.90;;;;;;15387038;23;20144;-78
2023/03/18 10:57:38;;;;;;;10.85;6.82;;;14.60;99.90;;;;;;15427951;23;20047;-79
2023/03/18 11:03:46;;;;;;;11.40;6.85;;;14.40;99.90;;;;;;15431104;23;20027;-78
2023/03/18 11:09:47;;;;;;;11.35;6.15;;;14.70;99.90;;;;;;15404710;23;20020;-78
2023/03/18 11:15:53;;;;;;;10.70;5.80;;;14.90;99.90;;;;;;15424655;23;20024;-79
2023/03/18 11:22:21;;;;;;;13.23;6.75;;;15.20;99.90;;;;;;15412721;23;20020;-78
2023/03/18 11:28:28;;;;;;;8.23;5.43;;;15.20;99.90;;;;;;15380994;23;20027;-78
2023/03/18 11:34:33;;;;;;;11.20;5.85;;;15.20;99.90;;;;;;15420821;23;20032;-78
2023/03/18 11:40:39;;;;;;;8.00;5.18;;;15.30;99.90;;;;;;15387234;23;20021;-78
2023/03/18 11:46:55;;;;;;;8.07;5.35;;;15.20;99.90;;;;;;15398805;23;20031;-79
2023/03/18 11:53:24;;;;;;;9.43;6.05;;;15.30;99.90;;;;;;15399774;23;20024;-78
2023/03/18 11:59:58;;;;;;;6.35;4.10;;;15.80;99.90;;;;;;15400582;23;20469;-78
2023/03/18 12:06:23;;;;;;;4.60;2.40;;;16.30;99.90;;;;;;15400490;23;20019;-79
2023/03/18 12:12:40;;;;;;;4.30;2.38;;;16.50;99.90;;;;;;15392404;23;20135;-80
2023/03/18 12:18:54;;;;;;;7.40;2.33;;;16.60;99.90;;;;;;15422117;23;20092;-79
2023/03/18 12:25:15;;;;;;;5.28;2.40;;;16.40;99.90;;;;;;15475756;23;20091;-79
2023/03/18 12:31:39;;;;;;;4.40;2.40;;;16.10;99.90;;;;;;15483784;22;20084;-78
2023/03/18 12:38:00;;;;;;;3.60;2.10;;;16.20;99.90;;;;;;15472714;23;20106;-79
2023/03/18 12:44:26;;;;;;;3.92;1.65;;;16.80;99.90;;;;;;15492619;22;20454;-79
2023/03/18 12:50:37;;;;;;;5.47;1.88;;;16.70;99.90;;;;;;15498751;22;20486;-79
2023/03/18 12:56:44;;;;;;;4.18;1.67;;;16.60;99.90;;;;;;15501148;22;20024;-78
2023/03/18 13:03:05;;;;;;;2.50;1.55;;;16.70;99.90;;;;;;15449617;23;20030;-78
2023/03/18 13:09:23;;;;;;;3.83;1.55;;;16.70;99.90;;;;;;15432479;23;20309;-78
2023/03/18 13:15:42;;;;;;;3.03;1.50;;;16.90;99.90;;;;;;15483793;23;20025;-78
2023/03/18 13:22:00;;;;;;;5.18;1.67;;;17.00;99.90;;;;;;15421895;22;20083;-79
2023/03/18 13:28:08;;;;;;;3.13;1.48;;;17.00;99.90;;;;;;15362024;23;20016;-78
2023/03/18 13:34:40;;;;;;;5.72;1.50;;;16.80;99.90;;;;;;15400015;23;20392;-78
2023/03/18 13:41:10;;;;;;;2.85;1.45;;;16.90;99.90;;;;;;15296594;23;20520;-78
2023/03/18 13:47:19;;;;;;;2.97;1.80;;;17.10;99.90;;;;;;15401643;23;20440;-78
2023/03/18 13:53:26;;;;;;;3.72;1.40;;;16.80;99.90;;;;;;15429199;23;20040;-79
2023/03/18 13:59:34;;;;;;;4.10;1.70;;;16.70;99.90;;;;;;15423405;23;20021;-78
2023/03/18 14:05:39;;;;;;;3.40;1.70;;;16.80;99.90;;;;;;15397972;23;20565;-79
2023/03/18 14:11:46;;;;;;;6.40;2.53;;;16.40;99.90;;;;;;15401218;23;20032;-79
2023/03/18 14:17:57;;;;;;;2.28;1.33;;;16.10;99.90;;;;;;15398172;23;20032;-78
2023/03/18 14:24:17;;;;;;;2.25;1.50;;;15.90;99.90;;;;;;15470459;22;20036;-78
2023/03/18 14:30:32;;;;;;;4.93;2.00;;;15.90;99.90;;;;;;15489257;23;20406;-79
2023/03/18 14:36:52;;;;;;;2.90;1.85;;;16.00;99.90;;;;;;15495900;23;20020;-78
2023/03/18 14:43:00;;;;;;;4.60;1.42;;;15.90;99.90;;;;;;15495191;22;20023;-78
2023/03/18 14:49:03;;;;;;;3.63;1.60;;;15.90;99.90;;;;;;15494330;23;20113;-77
2023/03/18 14:55:16;;;;;;;4.32;1.63;;;15.80;99.90;;;;;;15495647;23;20375;-78
2023/03/18 15:01:22;;;;;;;3.42;1.77;;;15.80;99.90;;;;;;15496526;22;20020;-79
2023/03/18 15:07:34;;;;;;;3.47;1.80;;;15.70;99.90;;;;;;15496382;22;20035;-78
2023/03/18 15:13:41;;;;;;;4.03;1.92;;;15.80;99.90;;;;;;15520260;22;20158;-78
2023/03/18 15:19:43;;;;;;;2.67;1.55;;;15.60;99.90;;;;;;15489883;22;20036;-78
2023/03/18 15:25:48;;;;;;;4.57;1.70;;;15.70;99.90;;;;;;15420580;23;20083;-78
2023/03/18 15:31:51;;;;;;;7.78;2.22;;;15.90;99.90;;;;;;15397885;23;20046;-78
2023/03/18 15:38:11;;;;;;;3.58;1.95;;;15.90;99.90;;;;;;15399725;23;20032;-79
2023/03/18 15:44:18;;;;;;;2.88;1.95;;;16.20;99.90;;;;;;15422613;23;20021;-78
2023/03/18 15:50:29;;;;;;;3.28;1.80;;;16.10;99.90;;;;;;15398591;23;20502;-79
2023/03/18 15:56:34;;;;;;;3.15;1.40;;;15.80;99.90;;;;;;15395679;23;20013;-79
2023/03/18 16:02:37;;;;;;;2.58;1.10;;;15.60;99.90;;;;;;15423793;23;20521;-78
2023/03/18 16:08:39;;;;;;;2.20;1.17;;;15.80;99.90;;;;;;15423537;23;20017;-78
2023/03/18 16:14:42;;;;;;;1.55;0.80;;;15.90;99.90;;;;;;15387512;23;20056;-78
2023/03/18 16:20:45;;;;;;;;;;;15.70;99.90;;;;;;15395105;23;20028;-78
2023/03/18 16:26:48;;;;;;;4.03;1.23;;;15.40;99.90;;;;;;15423185;23;19930;-78
2023/03/18 16:32:50;;;;;;;1.38;0.80;;;15.00;99.90;;;;;;15399838;23;20099;-79
2023/03/18 16:38:52;;;;;;;4.03;1.42;;;14.80;99.90;;;;;;15399501;23;20454;-79
2023/03/18 16:44:54;;;;;;;2.10;1.10;;;14.60;99.90;;;;;;15427750;23;20363;-78
2023/03/18 16:50:56;;;;;;;3.22;1.10;;;14.30;99.90;;;;;;15385427;23;20024;-79
2023/03/18 16:57:04;;;;;;;2.65;1.20;;;14.00;99.90;;;;;;15402269;23;20458;-78
2023/03/18 17:03:09;;;;;;;4.68;1.60;;;13.70;99.90;;;;;;15433374;23;20028;-78
2023/03/18 17:09:11;;;;;;;2.95;1.42;;;13.50;99.90;;;;;;15403749;23;20394;-77
2023/03/18 17:15:16;;;;;;;5.57;1.70;;;13.30;99.90;;;;;;15421890;23;20026;-77
2023/03/18 17:21:18;;;;;;;3.15;1.35;;;13.10;99.90;;;;;;15398103;23;20056;-78
2023/03/18 17:27:30;;;;;;;5.97;1.77;;;12.80;99.90;;;;;;15430509;23;20144;-77
2023/03/18 17:33:35;;;;;;;7.07;2.45;;;12.70;99.90;;;;;;15431243;23;20024;-77
2023/03/18 17:39:37;;;;;;;6.07;2.60;;;12.60;99.90;;;;;;15429771;23;20028;-77
2023/03/18 17:45:39;;;;;;;5.30;2.50;;;12.50;99.90;;;;;;15428590;23;20017;-78
2023/03/18 17:51:47;;;;;;;5.60;2.22;;;12.50;99.90;;;;;;15428527;23;20095;-78
2023/03/18 17:57:49;;;;;;;5.65;2.30;;;12.40;99.90;;;;;;15429339;23;20395;-78
2023/03/18 18:03:58;;;;;;;5.78;2.88;;;12.40;99.90;;;;;;15405959;23;20462;-78
2023/03/18 18:10:00;;;;;;;9.40;4.55;;;12.30;99.90;;;;;;15382133;23;20029;-78
2023/03/18 18:16:02;;;;;;;6.65;3.35;;;12.30;99.90;;;;;;15429075;23;20100;-78
2023/03/18 18:22:25;;;;;;;5.72;2.90;;;12.40;99.90;;;;;;15402004;23;20095;-81
2023/03/18 18:28:42;;;;;;;8.95;2.80;;;12.00;99.90;;;;;;15428476;23;20048;-81
2023/03/18 18:34:45;;;;;;;7.57;2.85;;;11.70;99.90;;;;;;15404521;23;20036;-80
2023/03/18 18:40:56;;;;;;;8.20;3.90;;;11.30;99.90;;;;;;15430320;23;20029;-79
2023/03/18 18:46:58;;;;;;;6.18;3.45;;;11.10;99.90;;;;;;15402009;23;20099;-80
2023/03/18 18:53:01;;;;;;;13.77;7.88;;;11.10;99.90;;;;;;15403877;23;20025;-79
2023/03/18 18:59:27;;;;;;;7.80;4.75;;;11.00;99.90;;;;;;15400897;23;20443;-79
2023/03/18 19:05:29;;;;;;;8.30;5.72;;;11.00;99.90;;;;;;15398172;23;20017;-79
2023/03/18 19:11:35;;;;;;;8.57;5.20;;;11.00;99.90;;;;;;15397796;23;20031;-79
2023/03/18 19:17:39;;;;;;;8.23;5.32;;;10.90;99.90;;;;;;15395495;23;20021;-79
2023/03/18 19:23:41;;;;;;;6.55;3.75;;;10.90;99.90;;;;;;15457880;22;20446;-79
2023/03/18 19:29:44;;;;;;;5.97;3.58;;;10.90;99.90;;;;;;15500088;23;20450;-79
2023/03/18 19:35:46;;;;;;;11.90;8.18;;;10.80;99.90;;;;;;15500066;23;20508;-79
2023/03/18 19:41:56;;;;;;;7.80;5.18;;;10.80;99.90;;;;;;15500680;23;20462;-80
2023/03/18 19:47:58;;;;;;;9.52;4.55;;;10.70;99.90;;;;;;15496082;23;20024;-79
2023/03/18 19:54:02;;;;;;;11.32;6.07;;;10.70;99.90;;;;;;15472116;23;20035;-79
2023/03/18 20:00:18;;;;;;;13.85;7.15;;;10.70;99.90;;;;;;15502294;23;20342;-80
2023/03/18 20:06:21;;;;;;;13.23;7.60;;;10.70;99.90;;;;;;15438519;23;20028;-79
2023/03/18 20:12:29;;;;;;;11.65;8.05;;;10.80;99.90;;;;;;15494949;23;20026;-79
2023/03/18 20:18:30;;;;;;;14.75;7.85;;;10.70;99.90;;;;;;15492161;22;20155;-80
2023/03/18 20:24:32;;;;;;;11.52;7.70;;;10.60;99.90;;;;;;15427787;22;20029;-79
2023/03/18 20:30:39;;;;;;;13.80;9.13;;;10.50;99.90;;;;;;15426099;23;20024;-79
2023/03/18 20:36:41;;;;;;;10.13;7.97;;;10.50;99.90;;;;;;15398453;23;20023;-79
2023/03/18 20:42:44;;;;;;;11.55;7.97;;;10.40;99.90;;;;;;15397721;23;20021;-79
2023/03/18 20:48:48;;;;;;;12.88;7.22;;;10.40;99.90;;;;;;15399616;23;20124;-79
2023/03/18 20:54:50;;;;;;;10.17;7.03;;;10.40;99.90;;;;;;15419537;23;20107;-78
2023/03/18 21:00:54;;;;;;;9.70;7.72;;;10.30;99.90;;;;;;15428517;23;20092;-79
2023/03/18 21:06:56;;;;;;;15.30;7.72;;;10.30;99.90;;;;;;15394828;23;20020;-79
2023/03/18 21:12:58;;;;;;;12.85;8.50;;;10.20;99.90;;;;;;15397487;23;20024;-79
2023/03/18 21:19:01;;;;;;;12.30;8.65;;;10.20;99.90;;;;;;15394603;23;20016;-79
2023/03/18 21:25:03;;;;;;;11.07;7.93;;;10.20;99.90;;;;;;15419776;23;20079;-78
2023/03/18 21:31:23;;;;;;;12.63;7.65;;;10.10;99.90;;;;;;15421666;23;20447;-79
2023/03/18 21:37:26;;;;;;;10.98;7.47;;;10.10;99.90;;;;;;15399074;23;20467;-78
2023/03/18 21:43:38;;;;;;;12.55;7.55;;;10.00;99.90;;;;;;15391128;23;20027;-79
2023/03/18 21:49:41;;;;;;;9.35;6.63;;;9.90;99.90;;;;;;15428949;23;20027;-79
2023/03/18 21:55:44;;;;;;;8.15;6.35;;;9.80;99.90;;;;;;15428058;23;20423;-79
2023/03/18 22:01:49;;;;;;;8.98;6.03;;;9.80;99.90;;;;;;15401956;23;20070;-79
2023/03/18 22:07:52;;;;;;;11.63;8.13;;;9.80;99.90;;;;;;15401176;23;20032;-79
2023/03/18 22:13:54;;;;;;;10.20;8.35;;;9.70;99.90;;;;;;15394812;23;20070;-79
2023/03/18 22:19:57;;;;;;;12.88;9.18;;;9.60;99.90;;;;;;15398847;23;20021;-78
2023/03/18 22:25:59;;;;;;;12.30;8.43;;;9.60;99.90;;;;;;15428367;23;20486;-79
2023/03/18 22:32:01;;;;;;;12.27;8.45;;;9.40;99.90;;;;;;15400121;23;20522;-80
2023/03/18 22:38:03;;;;;;;11.25;7.70;;;9.40;99.90;;;;;;15428996;23;20025;-79
2023/03/18 22:44:05;;;;;;;12.07;8.60;;;9.30;99.90;;;;;;15423883;23;20029;-79
2023/03/18 22:50:07;;;;;;;11.35;7.45;;;9.30;99.90;;;;;;15428624;23;20044;-79
2023/03/18 22:56:12;;;;;;;12.80;8.15;;;9.20;99.90;;;;;;15340692;23;20096;-79
2023/03/18 23:02:21;;;;;;;9.38;6.50;;;9.10;99.90;;;;;;15429408;23;20021;-79
2023/03/18 23:08:23;;;;;;;9.32;7.00;;;8.90;99.90;;;;;;15426522;23;20025;-80
2023/03/18 23:14:25;;;;;;;8.15;6.00;;;8.90;99.90;;;;;;15417882;23;20111;-80
2023/03/18 23:20:27;;;;;;;12.32;8.10;;;8.80;99.90;;;;;;15421543;23;20074;-80
2023/03/18 23:26:29;;;;;;;15.27;10.23;;;8.70;99.90;;;;;;15395025;23;20102;-79
2023/03/18 23:32:32;;;;;;;15.73;12.25;;;8.80;99.90;;;;;;15386600;23;20031;-79
2023/03/18 23:38:34;;;;;;;18.25;12.80;;;8.90;99.90;;;;;;15400344;23;20394;-80
2023/03/18 23:44:36;;;;;;;18.90;15.23;;;8.90;99.90;;;;;;15421655;23;20159;-78
2023/03/18 23:50:39;;;;;;;19.63;15.85;;;8.90;99.90;;;;;;15429356;23;20443;-79
2023/03/18 23:56:41;;;;;;;22.73;16.75;;;9.10;99.90;;;;;;15403622;23;20394;-78
